Time;durP1;ratioP1;P1;durP2;ratioP2;P2;SDS_P1;SDS_P2;PMS_P1;PMS_P2;Temp;Humidity;BMP_temperature;BMP_pressure;BME280_temperature;BME280_humidity;BME280_pressure;Samples;Min_cycle;Max_cycle;Signal;HPM_P1;HPM_P2
2021/06/27 00:59:02;;;;;;;13.00;11.70;;;17.60;99.90;;;;;;3683170;22;20228;-87
2021/06/27 01:30:50;;;;;;;11.68;10.63;;;17.30;99.90;;;;;;3614696;40;20218;-84
2021/06/27 01:39:05;;;;;;;12.95;11.75;;;16.80;99.90;;;;;;1214848;22;21764;-85
2021/06/27 02:58:54;;;;;;;12.00;10.80;;;17.30;99.90;;;;;;3602620;40;20230;-82
2021/06/27 03:01:22;;;;;;;13.35;11.05;;;17.20;99.90;;;;;;3586751;40;20269;-84
2021/06/27 03:03:51;;;;;;;11.52;10.15;;;17.10;99.90;;;;;;3574498;40;20251;-85
2021/06/27 03:06:19;;;;;;;11.48;10.25;;;17.20;99.90;;;;;;3574405;40;20244;-85
2021/06/27 03:08:47;;;;;;;11.18;10.00;;;17.10;99.90;;;;;;3582777;40;20215;-83
2021/06/27 03:14:04;;;;;;;10.48;9.52;;;16.80;99.90;;;;;;3607660;40;20242;-78
2021/06/27 03:16:31;;;;;;;10.77;9.10;;;16.70;99.90;;;;;;3607907;40;20398;-78
2021/06/27 03:18:58;;;;;;;11.02;9.93;;;16.80;99.90;;;;;;3598958;40;20226;-80
2021/06/27 03:21:25;;;;;;;11.93;10.48;;;16.70;99.90;;;;;;3607721;40;20374;-78
2021/06/27 03:23:52;;;;;;;11.48;10.32;;;16.70;99.90;;;;;;3607904;40;20246;-79
2021/06/27 03:26:19;;;;;;;11.52;10.32;;;16.80;99.90;;;;;;3599160;40;20242;-78
2021/06/27 03:28:51;;;;;;;11.32;10.38;;;17.00;99.90;;;;;;3608370;40;20253;-82
2021/06/27 03:31:19;;;;;;;12.13;11.02;;;16.90;99.90;;;;;;3607300;40;20271;-78
2021/06/27 03:33:46;;;;;;;11.50;10.50;;;17.00;99.90;;;;;;3608083;40;20290;-78
2021/06/27 03:36:13;;;;;;;11.07;10.00;;;17.00;99.90;;;;;;3608118;40;20283;-79
2021/06/27 03:38:46;;;;;;;12.00;10.88;;;17.10;99.90;;;;;;3607659;40;20230;-79
2021/06/27 03:41:18;;;;;;;11.98;10.77;;;17.20;99.90;;;;;;3599119;40;20230;-78
2021/06/27 03:43:46;;;;;;;10.48;9.52;;;17.30;99.90;;;;;;3607273;39;20253;-78
2021/06/27 03:46:14;;;;;;;11.27;10.35;;;17.20;99.90;;;;;;3607621;40;20253;-80
2021/06/27 03:48:42;;;;;;;11.00;10.10;;;17.30;99.90;;;;;;3607606;40;20614;-79
2021/06/27 03:51:09;;;;;;;10.98;10.05;;;17.30;99.90;;;;;;3598690;40;20276;-80
2021/06/27 03:53:37;;;;;;;11.55;10.65;;;17.30;99.90;;;;;;3608037;40;20584;-78
2021/06/27 03:56:04;;;;;;;11.10;10.20;;;17.30;99.90;;;;;;3607550;40;20222;-77
2021/06/27 03:58:31;;;;;;;11.93;10.77;;;17.30;99.90;;;;;;3598663;40;20358;-77
2021/06/27 04:00:58;;;;;;;12.75;11.65;;;17.40;99.90;;;;;;3589842;40;20238;-77
2021/06/27 04:03:25;;;;;;;13.27;12.07;;;17.00;99.90;;;;;;3607006;40;20289;-78
2021/06/27 04:05:54;;;;;;;13.07;11.90;;;16.60;99.90;;;;;;3598103;40;20238;-78
2021/06/27 04:08:21;;;;;;;12.70;11.60;;;16.50;99.90;;;;;;3598029;40;20318;-79
2021/06/27 04:10:49;;;;;;;13.13;11.63;;;16.40;99.90;;;;;;3607225;40;20245;-78
2021/06/27 04:13:16;;;;;;;12.32;11.05;;;16.50;99.90;;;;;;3607231;40;20246;-77
2021/06/27 04:15:43;;;;;;;12.93;11.73;;;16.70;99.90;;;;;;3607294;40;20234;-78
2021/06/27 04:18:10;;;;;;;13.55;12.10;;;17.00;99.90;;;;;;3607762;40;20242;-78
2021/06/27 04:20:37;;;;;;;12.48;11.38;;;17.20;99.90;;;;;;3607398;40;20228;-78
2021/06/27 04:23:06;;;;;;;13.30;11.85;;;17.40;99.90;;;;;;3607945;40;20249;-78
2021/06/27 04:25:35;;;;;;;14.18;12.98;;;17.50;99.90;;;;;;3607812;40;20244;-78
2021/06/27 04:28:03;;;;;;;12.63;11.52;;;17.50;99.90;;;;;;3607717;40;20244;-78
2021/06/27 04:30:30;;;;;;;14.35;13.10;;;17.60;99.90;;;;;;3606363;40;20229;-78
2021/06/27 04:32:57;;;;;;;12.05;11.05;;;17.60;99.90;;;;;;3607540;40;20245;-78
2021/06/27 04:35:24;;;;;;;12.23;11.02;;;17.70;99.90;;;;;;3607808;40;20241;-79
2021/06/27 04:37:51;;;;;;;12.30;11.13;;;17.60;99.90;;;;;;3598993;40;20585;-78
2021/06/27 04:40:20;;;;;;;13.20;11.90;;;17.60;99.90;;;;;;3607494;40;20210;-78
2021/06/27 04:42:47;;;;;;;13.73;12.43;;;17.60;99.90;;;;;;3607450;40;20268;-78
2021/06/27 04:45:14;;;;;;;13.52;12.20;;;17.60;99.90;;;;;;3606912;40;20263;-78
2021/06/27 04:47:42;;;;;;;12.65;11.20;;;17.70;99.90;;;;;;3607363;40;20238;-79
2021/06/27 04:50:10;;;;;;;13.23;10.20;;;17.70;99.90;;;;;;3607281;40;20274;-79
2021/06/27 04:52:37;;;;;;;13.95;11.02;;;17.80;99.90;;;;;;3607317;40;20268;-79
2021/06/27 04:55:07;;;;;;;12.50;11.30;;;17.90;99.90;;;;;;3607709;39;20262;-78
2021/06/27 04:57:36;;;;;;;12.75;10.95;;;18.00;99.90;;;;;;3600149;40;20237;-80
2021/06/27 05:00:05;;;;;;;14.55;12.30;;;18.10;99.90;;;;;;3608874;40;20528;-79
2021/06/27 05:02:32;;;;;;;14.40;13.20;;;18.20;99.90;;;;;;3609014;40;20253;-79
2021/06/27 05:04:59;;;;;;;12.23;11.23;;;18.30;99.90;;;;;;3609254;40;20278;-77
2021/06/27 05:07:26;;;;;;;14.82;13.43;;;18.30;99.90;;;;;;3600174;40;20278;-78
2021/06/27 05:09:54;;;;;;;14.43;12.93;;;18.30;99.90;;;;;;3609070;40;20298;-78
2021/06/27 05:12:21;;;;;;;13.75;12.50;;;18.20;99.90;;;;;;3591304;40;20281;-79
2021/06/27 05:14:50;;;;;;;14.27;12.68;;;18.30;99.90;;;;;;3608649;40;20240;-80
2021/06/27 05:17:17;;;;;;;13.98;12.68;;;18.30;99.90;;;;;;3608432;40;20221;-78
2021/06/27 05:19:44;;;;;;;14.20;12.90;;;18.40;99.90;;;;;;3609105;40;20206;-79
2021/06/27 05:22:11;;;;;;;13.48;12.13;;;18.40;99.90;;;;;;3591710;40;20257;-78
2021/06/27 05:24:38;;;;;;;12.73;11.45;;;18.30;99.90;;;;;;3591588;40;20242;-78
2021/06/27 05:27:06;;;;;;;15.45;12.55;;;18.40;99.90;;;;;;3609165;40;20577;-80
2021/06/27 05:29:34;;;;;;;13.20;12.10;;;18.50;99.90;;;;;;3608139;40;20225;-80
2021/06/27 05:32:03;;;;;;;12.15;11.05;;;18.40;99.90;;;;;;3607056;40;20253;-78
2021/06/27 05:34:30;;;;;;;14.43;13.00;;;18.60;99.90;;;;;;3605678;40;20246;-80
2021/06/27 05:36:58;;;;;;;12.77;11.50;;;18.70;99.90;;;;;;3605777;40;20489;-78
2021/06/27 05:39:26;;;;;;;10.70;9.65;;;18.80;99.90;;;;;;3605756;40;20238;-78
2021/06/27 05:41:53;;;;;;;10.60;9.68;;;18.90;99.90;;;;;;3605925;40;20306;-78
2021/06/27 05:44:20;;;;;;;10.48;9.60;;;18.90;99.90;;;;;;3597376;40;20515;-80
2021/06/27 05:46:47;;;;;;;12.30;11.30;;;19.00;99.90;;;;;;3597640;40;20252;-78
2021/06/27 05:49:16;;;;;;;12.18;9.95;;;19.00;99.90;;;;;;3598256;40;20602;-80
2021/06/27 05:51:43;;;;;;;12.02;10.68;;;19.10;99.90;;;;;;3607597;40;20256;-78
2021/06/27 05:54:10;;;;;;;11.70;9.35;;;19.10;99.90;;;;;;3599582;40;20575;-78
2021/06/27 05:56:38;;;;;;;11.45;10.35;;;19.20;99.90;;;;;;3609413;40;20261;-79
2021/06/27 05:59:06;;;;;;;10.48;9.57;;;19.30;99.90;;;;;;3600373;40;20246;-82
2021/06/27 06:01:33;;;;;;;11.30;9.73;;;19.10;99.90;;;;;;3609289;40;20265;-79
2021/06/27 06:04:00;;;;;;;13.90;10.32;;;19.20;99.90;;;;;;3600029;40;20253;-78
2021/06/27 06:06:29;;;;;;;13.20;9.23;;;19.40;99.90;;;;;;3600162;40;20237;-79
2021/06/27 06:08:56;;;;;;;9.48;8.48;;;19.50;99.90;;;;;;3609610;40;20613;-81
2021/06/27 06:11:25;;;;;;;9.15;8.13;;;19.60;99.90;;;;;;3609170;40;20298;-77
2021/06/27 06:13:52;;;;;;;9.13;8.38;;;19.70;99.90;;;;;;3608488;40;20229;-78
2021/06/27 06:16:19;;;;;;;8.93;8.23;;;19.70;99.90;;;;;;3609013;40;20245;-79
2021/06/27 06:18:46;;;;;;;8.07;7.47;;;19.90;99.90;;;;;;3609769;40;20311;-78
2021/06/27 06:21:14;;;;;;;14.35;12.90;;;20.10;99.90;;;;;;3609123;40;20214;-79
2021/06/27 06:23:43;;;;;;;8.00;7.40;;;19.60;99.90;;;;;;3608890;40;20237;-79
2021/06/27 06:26:11;;;;;;;7.97;7.28;;;19.40;99.90;;;;;;3599778;40;20238;-78
2021/06/27 06:28:39;;;;;;;8.10;7.45;;;19.40;99.90;;;;;;3599458;40;20594;-79
2021/06/27 06:31:07;;;;;;;8.48;7.68;;;19.50;99.90;;;;;;3609255;40;20573;-78
2021/06/27 06:33:34;;;;;;;10.68;8.02;;;19.80;99.90;;;;;;3607942;40;20627;-78
2021/06/27 06:36:01;;;;;;;8.10;7.32;;;20.30;99.90;;;;;;3609872;40;20275;-79
2021/06/27 06:38:28;;;;;;;10.45;6.70;;;20.40;99.90;;;;;;3610718;40;20242;-79
2021/06/27 06:40:57;;;;;;;7.53;6.82;;;20.60;99.90;;;;;;3609739;40;20258;-78
2021/06/27 06:43:24;;;;;;;24.33;21.48;;;20.60;99.90;;;;;;3610333;40;20542;-81
2021/06/27 06:45:52;;;;;;;10.35;9.45;;;20.70;99.90;;;;;;3610721;40;20239;-79
2021/06/27 06:48:20;;;;;;;7.97;7.30;;;20.90;99.90;;;;;;3610321;40;20254;-76
2021/06/27 06:50:47;;;;;;;8.07;7.00;;;21.00;99.90;;;;;;3609060;40;20226;-78
2021/06/27 06:53:14;;;;;;;8.43;7.65;;;21.20;99.90;;;;;;3610104;40;20242;-79
2021/06/27 06:55:41;;;;;;;8.43;7.75;;;21.30;99.90;;;;;;3610039;40;20304;-78
2021/06/27 06:58:09;;;;;;;8.90;8.20;;;20.90;99.90;;;;;;3607636;40;20246;-78
2021/06/27 07:00:36;;;;;;;8.02;7.32;;;20.50;99.90;;;;;;3608659;40;20210;-78
2021/06/27 07:03:04;;;;;;;8.70;7.97;;;21.00;99.90;;;;;;3608784;40;20261;-80
2021/06/27 07:05:31;;;;;;;7.93;7.20;;;21.20;99.90;;;;;;3609138;40;20214;-78
2021/06/27 07:07:58;;;;;;;12.63;11.32;;;21.60;99.90;;;;;;3609219;40;20272;-78
2021/06/27 07:10:25;;;;;;;13.77;12.38;;;21.70;99.90;;;;;;3608553;40;20641;-79
2021/06/27 07:12:52;;;;;;;8.82;8.07;;;21.90;99.90;;;;;;3610120;40;20316;-81
2021/06/27 07:15:22;;;;;;;7.15;6.63;;;22.20;99.90;;;;;;3609697;40;20279;-79
2021/06/27 07:17:49;;;;;;;7.90;7.22;;;22.10;99.90;;;;;;3608606;39;20237;-79
2021/06/27 07:20:17;;;;;;;8.52;7.57;;;21.70;99.90;;;;;;3608665;40;20622;-79
2021/06/27 07:22:44;;;;;;;7.47;6.88;;;21.30;99.90;;;;;;3595678;40;20538;-80
2021/06/27 07:25:12;;;;;;;8.90;8.00;;;21.10;99.90;;;;;;3608600;40;20286;-79
2021/06/27 07:27:39;;;;;;;10.02;9.02;;;21.20;99.90;;;;;;3608857;40;20230;-78
2021/06/27 07:30:08;;;;;;;10.00;8.48;;;21.40;99.90;;;;;;3610208;39;20448;-78
2021/06/27 07:32:37;;;;;;;8.98;8.25;;;21.50;99.90;;;;;;3611277;39;20229;-82
2021/06/27 07:35:05;;;;;;;8.38;7.72;;;21.70;99.90;;;;;;3608835;39;20240;-80
2021/06/27 07:38:04;;;;;;;8.18;7.25;;;21.70;99.90;;;;;;3603689;40;20229;-80
2021/06/27 07:40:31;;;;;;;6.90;6.30;;;22.10;99.90;;;;;;3646583;22;20242;-86
2021/06/27 07:42:58;;;;;;;7.50;6.80;;;22.20;99.90;;;;;;3612749;40;20222;-84
2021/06/27 07:45:26;;;;;;;7.10;6.40;;;22.30;99.90;;;;;;3612388;40;20234;-82
2021/06/27 07:47:54;;;;;;;6.43;5.88;;;22.60;99.90;;;;;;3612761;39;20244;-82
2021/06/27 07:50:22;;;;;;;8.23;6.55;;;22.60;99.90;;;;;;3612832;39;20291;-83
2021/06/27 07:55:31;;;;;;;6.60;6.00;;;22.10;99.90;;;;;;3612120;39;20238;-85
2021/06/27 07:57:58;;;;;;;7.43;6.82;;;22.00;99.90;;;;;;3642073;22;20728;-82
2021/06/27 08:00:29;;;;;;;10.20;9.20;;;22.40;99.90;;;;;;3604181;39;20274;-86
2021/06/27 08:02:57;;;;;;;6.60;6.05;;;22.80;99.90;;;;;;3612900;39;20241;-84
2021/06/27 08:05:28;;;;;;;6.75;6.10;;;23.00;99.90;;;;;;3612931;39;20240;-85
2021/06/27 08:07:56;;;;;;;9.90;7.85;;;23.20;99.90;;;;;;3678253;23;20237;-85
2021/06/27 08:10:25;;;;;;;6.90;6.25;;;23.20;99.90;;;;;;3622974;39;20221;-84
2021/06/27 08:12:54;;;;;;;6.93;6.32;;;23.20;99.90;;;;;;3614374;39;20269;-84
2021/06/27 08:15:22;;;;;;;6.45;5.95;;;23.40;99.90;;;;;;3622723;39;20763;-85
2021/06/27 08:17:50;;;;;;;13.98;5.38;;;23.70;99.90;;;;;;3613661;39;20214;-84
2021/06/27 08:20:20;;;;;;;6.95;6.45;;;23.90;99.90;;;;;;3612251;39;20242;-82
2021/06/27 08:22:48;;;;;;;7.15;6.55;;;24.00;99.90;;;;;;3612678;39;20222;-83
2021/06/27 08:25:15;;;;;;;5.75;5.25;;;24.10;99.90;;;;;;3616981;39;20237;-84
2021/06/27 08:27:45;;;;;;;6.53;5.93;;;24.50;99.90;;;;;;3611041;39;20212;-84
2021/06/27 08:30:14;;;;;;;5.53;5.07;;;24.80;99.90;;;;;;3609488;39;20411;-83
2021/06/27 08:32:43;;;;;;;6.20;5.70;;;24.50;99.90;;;;;;3619667;39;20232;-83
2021/06/27 08:35:13;;;;;;;6.18;5.78;;;24.70;99.90;;;;;;3653018;22;20283;-83
2021/06/27 08:37:45;;;;;;;6.47;5.88;;;24.90;99.90;;;;;;3616967;39;20245;-83
2021/06/27 08:40:15;;;;;;;6.10;5.60;;;25.10;99.90;;;;;;3618227;39;20213;-83
2021/06/27 08:42:43;;;;;;;12.30;10.55;;;25.10;99.90;;;;;;3617026;39;20225;-84
2021/06/27 08:45:21;;;;;;;6.07;5.57;;;24.90;99.90;;;;;;3611211;39;20274;-82
2021/06/27 08:47:53;;;;;;;6.07;5.57;;;24.80;99.90;;;;;;3607693;39;20233;-83
2021/06/27 08:50:22;;;;;;;5.78;5.28;;;24.70;99.90;;;;;;3604742;39;20261;-82
2021/06/27 08:52:52;;;;;;;7.10;5.75;;;24.90;99.90;;;;;;3609066;39;20235;-86
2021/06/27 08:55:19;;;;;;;5.80;5.40;;;25.30;99.90;;;;;;3599801;39;20238;-85
2021/06/27 08:57:50;;;;;;;5.50;5.10;;;25.60;99.90;;;;;;3606281;39;20772;-85
2021/06/27 09:00:18;;;;;;;5.15;4.75;;;25.70;99.90;;;;;;3607445;39;20244;-83
2021/06/27 09:03:01;;;;;;;4.95;4.55;;;25.90;99.90;;;;;;3609041;39;20248;-83
2021/06/27 09:05:35;;;;;;;4.75;4.43;;;26.00;99.90;;;;;;3599456;39;20221;-83
2021/06/27 09:08:16;;;;;;;4.55;4.15;;;26.30;99.90;;;;;;3604893;39;20274;-86
2021/06/27 09:10:51;;;;;;;5.28;4.97;;;26.10;99.90;;;;;;3612060;39;20225;-85
2021/06/27 09:16:22;;;;;;;5.03;4.15;;;25.70;99.90;;;;;;3620298;39;20221;-84
2021/06/27 09:27:38;;;;;;;4.63;4.20;;;26.00;99.90;;;;;;3616427;39;20248;-83
2021/06/27 09:30:15;;;;;;;4.60;4.30;;;26.20;99.90;;;;;;3617284;39;20238;-85
2021/06/27 09:32:51;;;;;;;4.72;4.43;;;26.40;99.90;;;;;;3605430;39;20299;-83
2021/06/27 09:35:44;;;;;;;4.10;3.80;;;26.50;99.90;;;;;;3602886;39;20218;-85
2021/06/27 09:40:46;;;;;;;7.97;7.07;;;26.30;99.90;;;;;;3611113;39;20229;-83
2021/06/27 09:46:01;;;;;;;4.45;4.10;;;26.40;99.90;;;;;;3611165;39;20253;-83
2021/06/27 09:51:34;;;;;;;5.35;4.97;;;26.30;99.90;;;;;;3687231;22;20225;-87
2021/06/27 09:54:02;;;;;;;5.43;5.03;;;26.40;99.90;;;;;;3602799;39;20273;-84
2021/06/27 09:56:36;;;;;;;4.15;3.85;;;27.10;99.90;;;;;;3603509;39;20223;-86
2021/06/27 10:02:04;;;;;;;4.90;4.50;;;27.10;99.90;;;;;;3650896;22;20248;-89
2021/06/27 10:23:22;;;;;;;4.47;3.88;;;27.40;99.90;;;;;;3622928;39;20243;-84
2021/06/27 10:25:50;;;;;;;3.85;3.65;;;27.70;99.90;;;;;;3623384;39;20210;-84
2021/06/27 10:28:18;;;;;;;4.25;3.92;;;27.60;99.90;;;;;;3621023;39;20242;-85
2021/06/27 10:30:46;;;;;;;3.78;3.47;;;27.50;99.90;;;;;;3618025;39;20270;-86
2021/06/27 10:33:13;;;;;;;4.45;4.05;;;27.60;99.90;;;;;;3618364;39;20250;-84
2021/06/27 10:38:28;;;;;;;4.57;4.15;;;27.70;99.90;;;;;;3612965;39;20229;-84
2021/06/27 10:40:56;;;;;;;3.78;3.47;;;27.80;99.90;;;;;;3612729;39;20258;-84
2021/06/27 10:43:24;;;;;;;3.42;3.22;;;28.20;99.90;;;;;;3613003;39;20732;-87
2021/06/27 10:46:00;;;;;;;3.65;3.35;;;28.40;99.90;;;;;;3612595;39;20740;-85
2021/06/27 10:51:03;;;;;;;2.30;2.20;;;28.20;99.90;;;;;;3622048;39;20229;-89
2021/06/27 10:53:33;;;;;;;4.93;4.53;;;28.00;99.90;;;;;;3652086;22;21067;-85
2021/06/27 10:58:40;;;;;;;3.75;3.45;;;28.00;99.90;;;;;;3612695;39;20230;-87
2021/06/27 11:01:09;;;;;;;3.40;3.20;;;28.20;99.90;;;;;;3606732;39;20215;-87
2021/06/27 11:03:39;;;;;;;3.25;3.00;;;28.50;99.90;;;;;;3612467;39;20747;-87
2021/06/27 11:20:06;;;;;;;3.90;2.88;;;29.00;99.90;;;;;;3618092;39;20779;-83
2021/06/27 11:22:46;;;;;;;3.95;2.63;;;29.30;99.90;;;;;;3609636;39;20249;-85
2021/06/27 11:25:33;;;;;;;3.03;2.83;;;28.80;99.90;;;;;;3608763;39;20261;-83
2021/06/27 11:30:50;;;;;;;2.70;2.60;;;29.20;99.90;;;;;;3611523;39;20230;-83
2021/06/27 11:33:21;;;;;;;3.20;2.88;;;29.30;99.90;;;;;;3647650;22;20246;-85
2021/06/27 11:35:50;;;;;;;2.78;2.58;;;29.40;99.90;;;;;;3618167;39;20350;-88
2021/06/27 11:38:43;;;;;;;3.10;2.90;;;29.20;99.90;;;;;;3685253;22;20233;-86
2021/06/27 11:41:13;;;;;;;3.53;3.22;;;29.40;99.90;;;;;;3590022;40;20816;-87
2021/06/27 11:46:36;;;;;;;3.28;2.97;;;29.60;99.90;;;;;;1149250;22;21707;31
2021/06/27 11:51:45;;;;;;;3.10;2.75;;;29.50;99.90;;;;;;3681419;22;20230;-87
2021/06/27 11:54:15;;;;;;;2.83;2.63;;;29.50;99.90;;;;;;3665521;22;20766;-85
2021/06/27 11:59:54;;;;;;;4.22;3.83;;;30.00;99.90;;;;;;3681157;22;20232;-88
2021/06/27 12:02:28;;;;;;;3.88;3.58;;;30.20;99.90;;;;;;3599530;39;20254;-86
2021/06/27 12:04:56;;;;;;;3.53;3.22;;;30.20;99.90;;;;;;3634382;22;20251;-84
2021/06/27 12:07:36;;;;;;;3.20;2.90;;;30.30;99.90;;;;;;3622997;22;20244;-85
2021/06/27 12:10:03;;;;;;;3.50;3.20;;;30.20;99.90;;;;;;3689898;22;20233;-85
2021/06/27 12:13:02;;;;;;;4.55;3.15;;;30.30;99.90;;;;;;3654183;22;20256;-86
2021/06/27 12:15:37;;;;;;;3.63;3.38;;;30.30;99.90;;;;;;3691224;22;20244;-85
2021/06/27 12:23:56;;;;;;;4.75;3.45;;;29.00;99.90;;;;;;3687368;22;20285;-86
2021/06/27 12:31:51;;;;;;;5.60;3.80;;;29.70;99.90;;;;;;3647252;22;20230;-85
2021/06/27 12:34:19;;;;;;;3.72;3.38;;;30.10;99.90;;;;;;3655573;22;21122;-87
2021/06/27 12:42:23;;;;;;;3.03;2.78;;;30.60;99.90;;;;;;3606821;39;20723;-83
2021/06/27 12:44:51;;;;;;;2.75;2.55;;;30.90;99.90;;;;;;3600954;39;20274;-84
2021/06/27 12:47:30;;;;;;;5.18;2.58;;;31.10;99.90;;;;;;3635310;23;20234;-83
2021/06/27 12:49:57;;;;;;;2.33;2.13;;;31.10;99.90;;;;;;3618244;39;20233;-83
2021/06/27 12:52:25;;;;;;;2.58;2.38;;;30.90;99.90;;;;;;3618677;39;20298;-81
2021/06/27 12:54:52;;;;;;;2.75;2.55;;;30.80;99.90;;;;;;3618109;39;20237;-86
2021/06/27 12:57:21;;;;;;;2.67;2.47;;;31.00;99.90;;;;;;3618599;39;20838;-89
2021/06/27 12:59:51;;;;;;;2.30;2.20;;;31.10;99.90;;;;;;3619863;39;20954;-85
2021/06/27 13:02:22;;;;;;;2.85;2.70;;;31.40;99.90;;;;;;3612928;39;20273;-84
2021/06/27 13:04:59;;;;;;;2.65;2.47;;;31.70;99.90;;;;;;3612244;39;20665;-84
2021/06/27 13:07:32;;;;;;;2.08;1.98;;;32.00;99.90;;;;;;3612355;39;20226;-84
2021/06/27 13:10:10;;;;;;;3.97;3.63;;;32.10;99.90;;;;;;3612048;39;20221;-87
2021/06/27 13:12:50;;;;;;;11.32;10.32;;;32.00;99.90;;;;;;3649113;22;20264;-85
2021/06/27 13:15:21;;;;;;;2.40;2.20;;;32.00;99.90;;;;;;3611379;39;20226;-89
2021/06/27 13:17:50;;;;;;;1.75;1.65;;;32.10;99.90;;;;;;3604680;39;20829;-86
2021/06/27 13:20:20;;;;;;;1.83;1.73;;;32.00;99.90;;;;;;3613573;39;20211;-88
2021/06/27 13:23:00;;;;;;;2.17;1.98;;;32.00;99.90;;;;;;3613659;39;20257;-84
2021/06/27 13:25:49;;;;;;;2.25;2.03;;;32.10;99.90;;;;;;3605207;39;20217;-87
2021/06/27 13:28:33;;;;;;;1.70;1.60;;;32.10;99.90;;;;;;3611497;39;20222;-83
2021/06/27 13:31:02;;;;;;;1.17;1.17;;;32.20;99.90;;;;;;3611857;39;20249;-84
2021/06/27 13:33:31;;;;;;;1.98;1.80;;;32.20;99.90;;;;;;3609379;39;20242;-87
2021/06/27 13:36:06;;;;;;;1.92;1.83;;;31.20;99.90;;;;;;3609322;39;20259;-84
2021/06/27 13:38:34;;;;;;;1.52;1.42;;;31.60;99.90;;;;;;3613820;39;20237;-83
2021/06/27 13:41:02;;;;;;;2.05;1.95;;;32.10;99.90;;;;;;3613622;39;20295;-83
2021/06/27 13:43:30;;;;;;;1.83;1.73;;;32.00;99.90;;;;;;3613763;39;20315;-86
2021/06/27 13:45:57;;;;;;;1.83;1.73;;;32.10;99.90;;;;;;3613651;39;20237;-83
2021/06/27 13:48:25;;;;;;;1.90;1.80;;;32.10;99.90;;;;;;3604944;39;20233;-84
2021/06/27 13:50:52;;;;;;;1.85;1.70;;;32.60;99.90;;;;;;3604495;39;20238;-84
2021/06/27 13:53:21;;;;;;;1.65;1.55;;;32.80;99.90;;;;;;3612011;39;20266;-85
2021/06/27 13:55:49;;;;;;;2.63;1.90;;;33.20;99.90;;;;;;3603388;40;20272;-85
2021/06/27 13:58:16;;;;;;;3.10;1.95;;;33.00;99.90;;;;;;3594796;40;20219;-82
2021/06/27 14:00:53;;;;;;;2.08;1.88;;;33.30;99.90;;;;;;3643151;22;20324;-84
2021/06/27 14:03:20;;;;;;;2.00;1.90;;;32.60;99.90;;;;;;3649407;22;20229;-85
2021/06/27 14:08:40;;;;;;;3.05;1.80;;;31.50;99.90;;;;;;3628221;22;20233;-85
2021/06/27 14:11:07;;;;;;;4.18;3.88;;;32.00;99.90;;;;;;3623663;39;20205;-85
2021/06/27 14:13:37;;;;;;;2.78;1.95;;;32.80;99.90;;;;;;3649663;22;20225;-82
2021/06/27 14:16:05;;;;;;;1.98;1.88;;;33.00;99.90;;;;;;3623723;39;20241;-84
2021/06/27 14:18:32;;;;;;;2.30;2.20;;;33.00;99.90;;;;;;3623093;39;20279;-86
2021/06/27 14:20:59;;;;;;;2.55;1.70;;;33.40;99.90;;;;;;3623472;39;20229;-89
2021/06/27 14:23:26;;;;;;;1.77;1.65;;;33.70;99.90;;;;;;3623565;39;20253;-84
2021/06/27 14:25:55;;;;;;;2.95;1.70;;;33.70;99.90;;;;;;3623043;39;20229;-85
2021/06/27 14:28:22;;;;;;;1.63;1.52;;;33.90;99.90;;;;;;3614672;39;20213;-84
2021/06/27 14:30:49;;;;;;;2.00;1.90;;;34.00;99.90;;;;;;3614741;39;20236;-85
2021/06/27 14:33:17;;;;;;;1.52;1.42;;;34.20;99.90;;;;;;3614973;39;20297;-85
2021/06/27 14:35:45;;;;;;;2.00;1.77;;;34.90;99.90;;;;;;3623563;39;20266;-85
2021/06/27 14:38:12;;;;;;;2.00;1.90;;;35.20;99.90;;;;;;3623565;39;20237;-85
2021/06/27 14:40:40;;;;;;;2.03;1.92;;;35.00;99.90;;;;;;3614708;39;21084;-87
2021/06/27 14:43:08;;;;;;;2.75;2.13;;;35.30;99.90;;;;;;3623565;39;20217;-85
2021/06/27 14:45:37;;;;;;;3.03;2.13;;;35.20;99.90;;;;;;3623430;39;20229;-86
2021/06/27 14:48:06;;;;;;;1.83;1.73;;;35.20;99.90;;;;;;3623258;39;20248;-87
2021/06/27 14:50:33;;;;;;;2.30;2.13;;;35.10;99.90;;;;;;3623390;39;20221;-85
2021/06/27 14:53:00;;;;;;;1.88;1.77;;;35.20;99.90;;;;;;3623288;39;20241;-88
2021/06/27 14:55:30;;;;;;;1.83;1.73;;;34.50;99.90;;;;;;3623281;39;20216;-85
2021/06/27 14:57:57;;;;;;;2.05;1.95;;;34.60;99.90;;;;;;3614681;39;20236;-86
2021/06/27 15:00:26;;;;;;;3.30;3.00;;;34.70;99.90;;;;;;3614658;39;20209;-86
2021/06/27 15:02:53;;;;;;;1.95;1.85;;;34.80;99.90;;;;;;3614740;39;20250;-85
2021/06/27 15:05:20;;;;;;;2.17;2.00;;;35.20;99.90;;;;;;3623349;39;20240;-85
2021/06/27 15:07:48;;;;;;;2.03;1.92;;;35.50;99.90;;;;;;3623261;39;20238;-86
2021/06/27 15:10:15;;;;;;;1.70;1.60;;;35.90;99.90;;;;;;3614629;39;20257;-86
2021/06/27 15:12:42;;;;;;;2.53;2.33;;;36.20;99.90;;;;;;3623325;39;20294;-82
2021/06/27 15:15:36;;;;;;;1.88;1.77;;;36.30;99.90;;;;;;3686051;22;20245;-85
2021/06/27 15:18:05;;;;;;;1.67;1.58;;;36.10;99.90;;;;;;3649049;22;20260;-86
2021/06/27 15:20:32;;;;;;;3.10;2.10;;;36.00;99.90;;;;;;3612348;39;20737;-84
2021/06/27 15:22:59;;;;;;;1.98;1.88;;;36.40;99.90;;;;;;3613040;39;20311;-84
2021/06/27 15:25:26;;;;;;;2.38;2.15;;;36.40;99.90;;;;;;3612990;39;20249;-89
2021/06/27 15:27:53;;;;;;;2.58;1.75;;;37.10;99.90;;;;;;3612537;39;20673;-82
2021/06/27 15:30:21;;;;;;;2.13;2.03;;;37.70;99.90;;;;;;3612995;39;20214;-83
2021/06/27 15:35:23;;;;;;;2.85;2.65;;;36.50;99.90;;;;;;3602309;39;20814;-83
2021/06/27 15:37:50;;;;;;;3.13;2.85;;;36.40;99.90;;;;;;3613034;39;20302;-82
2021/06/27 15:40:18;;;;;;;1.85;1.75;;;36.30;99.90;;;;;;3612075;39;20245;-84
2021/06/27 15:45:22;;;;;;;4.22;3.17;;;36.50;99.90;;;;;;3611014;39;20221;-89
2021/06/27 15:47:50;;;;;;;4.22;3.92;;;36.20;99.90;;;;;;3612974;39;20775;-85
2021/06/27 15:50:17;;;;;;;6.75;6.22;;;36.80;99.90;;;;;;3612260;39;20217;-84
2021/06/27 15:52:46;;;;;;;1.95;1.85;;;37.30;99.90;;;;;;3612740;39;20302;-87
2021/06/27 15:57:55;;;;;;;1.73;1.63;;;37.40;99.90;;;;;;3612398;39;20237;-84
2021/06/27 16:02:56;;;;;;;3.10;2.90;;;37.20;99.90;;;;;;3612268;39;20241;-85
2021/06/27 16:05:23;;;;;;;2.40;2.30;;;36.80;99.90;;;;;;3612831;39;20228;-86
2021/06/27 16:08:17;;;;;;;2.40;2.20;;;37.60;99.90;;;;;;3646678;22;20229;-85
2021/06/27 16:10:45;;;;;;;1.90;1.80;;;37.80;99.90;;;;;;3622099;39;20539;-82
2021/06/27 16:13:12;;;;;;;2.38;2.28;;;38.00;99.90;;;;;;3622823;39;20268;-87
2021/06/27 16:15:39;;;;;;;5.50;4.90;;;37.80;99.90;;;;;;3622916;39;20225;-85
2021/06/27 16:18:08;;;;;;;2.58;2.15;;;37.90;99.90;;;;;;3614200;39;20212;-84
2021/06/27 16:20:37;;;;;;;3.53;2.60;;;38.50;99.90;;;;;;3622349;39;20220;-87
2021/06/27 16:23:04;;;;;;;1.80;1.70;;;38.60;99.40;;;;;;3705134;22;20301;-83
2021/06/27 16:25:32;;;;;;;2.10;1.95;;;38.90;99.20;;;;;;3613718;39;20252;-84
2021/06/27 16:28:00;;;;;;;1.90;1.80;;;38.80;98.90;;;;;;3622973;39;20222;-84
2021/06/27 16:30:27;;;;;;;1.65;1.55;;;38.60;99.40;;;;;;3622721;39;20232;-88
2021/06/27 16:35:43;;;;;;;4.35;3.95;;;38.20;98.80;;;;;;3602102;40;20227;-85
2021/06/27 16:38:10;;;;;;;1.90;1.80;;;38.10;99.50;;;;;;3602080;40;20665;-87
2021/06/27 16:40:39;;;;;;;2.75;1.80;;;38.50;98.80;;;;;;3602182;40;20222;-83
2021/06/27 16:43:06;;;;;;;1.70;1.60;;;38.10;97.80;;;;;;3610468;39;20242;-84
2021/06/27 16:45:33;;;;;;;9.43;8.63;;;37.30;98.20;;;;;;3612476;39;20819;-86
2021/06/27 16:48:00;;;;;;;3.53;1.95;;;37.30;98.90;;;;;;3612547;39;20241;-83
2021/06/27 16:50:27;;;;;;;2.55;1.70;;;37.30;98.50;;;;;;3612774;39;21130;-85
2021/06/27 16:52:54;;;;;;;2.17;1.50;;;37.60;98.10;;;;;;3614096;39;20303;-84
2021/06/27 16:55:21;;;;;;;7.05;1.60;;;37.90;98.20;;;;;;3596710;39;20233;-85
2021/06/27 16:57:50;;;;;;;1.88;1.77;;;38.10;97.80;;;;;;3614085;39;20664;-83
2021/06/27 17:00:18;;;;;;;1.83;1.73;;;38.40;97.20;;;;;;3605260;39;20258;-83
2021/06/27 17:02:45;;;;;;;2.13;1.85;;;38.40;97.40;;;;;;3612829;39;20851;-84
2021/06/27 17:05:12;;;;;;;2.35;2.13;;;38.10;96.20;;;;;;3605136;39;20242;-84
2021/06/27 17:07:39;;;;;;;5.60;5.10;;;36.90;96.10;;;;;;3613938;39;20278;-85
2021/06/27 17:10:09;;;;;;;2.38;2.28;;;36.20;96.50;;;;;;3613891;39;20258;-84
2021/06/27 17:12:38;;;;;;;2.50;1.42;;;35.70;98.20;;;;;;3613864;39;20318;-85
2021/06/27 17:15:13;;;;;;;1.75;1.60;;;36.30;97.60;;;;;;3604988;39;20214;-84
2021/06/27 17:17:41;;;;;;;1.38;1.27;;;37.30;96.90;;;;;;3612162;39;20247;-87
2021/06/27 17:20:10;;;;;;;1.73;1.52;;;37.50;96.60;;;;;;3613927;39;20209;-86
2021/06/27 17:22:37;;;;;;;2.08;1.33;;;37.50;97.20;;;;;;3605219;39;20241;-85
2021/06/27 17:25:08;;;;;;;1.58;1.48;;;37.20;97.60;;;;;;3605260;39;20746;-87
2021/06/27 17:27:36;;;;;;;1.15;1.10;;;37.30;96.90;;;;;;3605083;39;20217;-84
2021/06/27 17:30:05;;;;;;;1.60;1.50;;;36.90;96.90;;;;;;3613693;39;20238;-85
2021/06/27 17:32:33;;;;;;;35.42;32.30;;;36.90;96.60;;;;;;3604966;39;20826;-85
2021/06/27 17:35:01;;;;;;;2.55;2.10;;;37.30;96.80;;;;;;3605088;39;20253;-84